sensor_id;sensor_type;location;lat;lon;timestamp;P1;durP1;ratioP1;P2;durP2;ratioP2
29938;SDS011;16799;50.844;5.304;2022-09-06T00:01:38;10.03;;;5.40;;
29938;SDS011;16799;50.844;5.304;2022-09-06T00:04:03;8.93;;;7.00;;
29938;SDS011;16799;50.844;5.304;2022-09-06T00:06:29;6.53;;;6.00;;
29938;SDS011;16799;50.844;5.304;2022-09-06T00:08:55;9.07;;;5.67;;
29938;SDS011;16799;50.844;5.304;2022-09-06T00:11:20;6.40;;;5.80;;
29938;SDS011;16799;50.844;5.304;2022-09-06T00:13:47;6.63;;;6.03;;
29938;SDS011;16799;50.844;5.304;2022-09-06T00:16:22;10.63;;;5.80;;
29938;SDS011;16799;50.844;5.304;2022-09-06T00:18:51;6.70;;;5.83;;
29938;SDS011;16799;50.844;5.304;2022-09-06T00:21:28;6.53;;;4.67;;
29938;SDS011;16799;50.844;5.304;2022-09-06T00:23:54;5.90;;;5.40;;
29938;SDS011;16799;50.844;5.304;2022-09-06T00:26:21;4.63;;;4.30;;
29938;SDS011;16799;50.844;5.304;2022-09-06T00:28:47;5.70;;;5.30;;
29938;SDS011;16799;50.844;5.304;2022-09-06T00:31:14;18.13;;;6.33;;
29938;SDS011;16799;50.844;5.304;2022-09-06T00:33:42;6.40;;;5.90;;
29938;SDS011;16799;50.844;5.304;2022-09-06T00:36:08;5.23;;;4.83;;
29938;SDS011;16799;50.844;5.304;2022-09-06T00:38:35;6.00;;;5.57;;
29938;SDS011;16799;50.844;5.304;2022-09-06T00:41:02;5.23;;;4.83;;
29938;SDS011;16799;50.844;5.304;2022-09-06T00:43:28;5.60;;;5.30;;
29938;SDS011;16799;50.844;5.304;2022-09-06T00:45:54;5.83;;;5.30;;
29938;SDS011;16799;50.844;5.304;2022-09-06T00:48:20;5.77;;;5.30;;
29938;SDS011;16799;50.844;5.304;2022-09-06T00:50:47;6.50;;;5.60;;
29938;SDS011;16799;50.844;5.304;2022-09-06T00:53:15;11.20;;;6.87;;
29938;SDS011;16799;50.844;5.304;2022-09-06T00:55:41;6.40;;;6.00;;
29938;SDS011;16799;50.844;5.304;2022-09-06T00:58:07;6.90;;;5.43;;
29938;SDS011;16799;50.844;5.304;2022-09-06T01:00:34;6.60;;;6.10;;
29938;SDS011;16799;50.844;5.304;2022-09-06T01:03:00;7.17;;;6.53;;
29938;SDS011;16799;50.844;5.304;2022-09-06T01:05:33;6.87;;;6.37;;
29938;SDS011;16799;50.844;5.304;2022-09-06T01:08:15;7.40;;;6.30;;
29938;SDS011;16799;50.844;5.304;2022-09-06T01:16:39;7.67;;;7.07;;
29938;SDS011;16799;50.844;5.304;2022-09-06T01:24:27;13.87;;;7.00;;
29938;SDS011;16799;50.844;5.304;2022-09-06T01:30:27;7.67;;;7.00;;
29938;SDS011;16799;50.844;5.304;2022-09-06T01:32:59;6.30;;;5.77;;
29938;SDS011;16799;50.844;5.304;2022-09-06T01:36:03;14.07;;;7.80;;
29938;SDS011;16799;50.844;5.304;2022-09-06T01:38:33;7.13;;;6.67;;
29938;SDS011;16799;50.844;5.304;2022-09-06T01:40:59;9.80;;;7.60;;
29938;SDS011;16799;50.844;5.304;2022-09-06T01:43:27;6.83;;;6.40;;
29938;SDS011;16799;50.844;5.304;2022-09-06T01:51:23;6.50;;;6.10;;
29938;SDS011;16799;50.844;5.304;2022-09-06T02:05:23;9.20;;;8.40;;
29938;SDS011;16799;50.844;5.304;2022-09-06T02:07:57;8.20;;;7.50;;
29938;SDS011;16799;50.844;5.304;2022-09-06T02:10:44;11.43;;;8.13;;
29938;SDS011;16799;50.844;5.304;2022-09-06T02:13:14;8.40;;;7.67;;
29938;SDS011;16799;50.844;5.304;2022-09-06T02:15:43;13.10;;;7.97;;
29938;SDS011;16799;50.844;5.304;2022-09-06T02:18:26;8.87;;;8.07;;
29938;SDS011;16799;50.844;5.304;2022-09-06T02:21:14;13.00;;;8.17;;
29938;SDS011;16799;50.844;5.304;2022-09-06T02:23:45;9.70;;;8.67;;
29938;SDS011;16799;50.844;5.304;2022-09-06T02:26:17;10.37;;;8.73;;
29938;SDS011;16799;50.844;5.304;2022-09-06T02:28:46;8.67;;;7.83;;
29938;SDS011;16799;50.844;5.304;2022-09-06T02:31:17;8.63;;;7.80;;
29938;SDS011;16799;50.844;5.304;2022-09-06T02:33:47;10.37;;;9.27;;
29938;SDS011;16799;50.844;5.304;2022-09-06T02:36:14;16.17;;;8.10;;
29938;SDS011;16799;50.844;5.304;2022-09-06T02:38:41;14.40;;;9.00;;
29938;SDS011;16799;50.844;5.304;2022-09-06T02:41:09;9.73;;;7.73;;
29938;SDS011;16799;50.844;5.304;2022-09-06T02:43:35;11.80;;;8.70;;
29938;SDS011;16799;50.844;5.304;2022-09-06T02:46:01;12.43;;;9.43;;
29938;SDS011;16799;50.844;5.304;2022-09-06T02:48:27;8.63;;;7.77;;
29938;SDS011;16799;50.844;5.304;2022-09-06T02:50:53;8.60;;;7.27;;
29938;SDS011;16799;50.844;5.304;2022-09-06T02:53:18;7.90;;;7.20;;
29938;SDS011;16799;50.844;5.304;2022-09-06T02:55:45;8.93;;;7.90;;
29938;SDS011;16799;50.844;5.304;2022-09-06T02:58:11;15.80;;;9.67;;
29938;SDS011;16799;50.844;5.304;2022-09-06T03:00:37;11.80;;;8.87;;
29938;SDS011;16799;50.844;5.304;2022-09-06T03:03:03;8.50;;;7.77;;
29938;SDS011;16799;50.844;5.304;2022-09-06T03:05:29;11.93;;;8.83;;
29938;SDS011;16799;50.844;5.304;2022-09-06T03:07:55;10.40;;;7.80;;
29938;SDS011;16799;50.844;5.304;2022-09-06T03:10:21;15.80;;;9.47;;
29938;SDS011;16799;50.844;5.304;2022-09-06T03:12:47;11.20;;;10.10;;
29938;SDS011;16799;50.844;5.304;2022-09-06T03:15:14;13.23;;;8.80;;
29938;SDS011;16799;50.844;5.304;2022-09-06T03:17:40;12.57;;;9.80;;
29938;SDS011;16799;50.844;5.304;2022-09-06T03:20:07;10.87;;;8.70;;
29938;SDS011;16799;50.844;5.304;2022-09-06T03:22:34;9.87;;;8.90;;
29938;SDS011;16799;50.844;5.304;2022-09-06T03:25:00;14.23;;;8.90;;
29938;SDS011;16799;50.844;5.304;2022-09-06T03:27:26;9.30;;;8.47;;
29938;SDS011;16799;50.844;5.304;2022-09-06T03:29:51;9.97;;;8.53;;
29938;SDS011;16799;50.844;5.304;2022-09-06T03:32:17;9.87;;;9.10;;
29938;SDS011;16799;50.844;5.304;2022-09-06T03:34:43;10.60;;;9.37;;
29938;SDS011;16799;50.844;5.304;2022-09-06T03:37:08;14.90;;;9.40;;
29938;SDS011;16799;50.844;5.304;2022-09-06T03:39:34;10.50;;;8.97;;
29938;SDS011;16799;50.844;5.304;2022-09-06T03:42:00;11.93;;;8.80;;
29938;SDS011;16799;50.844;5.304;2022-09-06T03:44:25;10.83;;;9.73;;
29938;SDS011;16799;50.844;5.304;2022-09-06T03:46:51;11.07;;;9.90;;
29938;SDS011;16799;50.844;5.304;2022-09-06T03:49:17;12.03;;;9.40;;
29938;SDS011;16799;50.844;5.304;2022-09-06T03:51:43;13.50;;;8.47;;
29938;SDS011;16799;50.844;5.304;2022-09-06T03:54:08;8.33;;;7.70;;
29938;SDS011;16799;50.844;5.304;2022-09-06T03:56:34;8.90;;;8.13;;
29938;SDS011;16799;50.844;5.304;2022-09-06T03:58:59;8.40;;;7.73;;
29938;SDS011;16799;50.844;5.304;2022-09-06T04:01:25;8.67;;;7.80;;
29938;SDS011;16799;50.844;5.304;2022-09-06T04:03:51;9.50;;;6.87;;
29938;SDS011;16799;50.844;5.304;2022-09-06T04:06:17;8.80;;;8.00;;
29938;SDS011;16799;50.844;5.304;2022-09-06T04:08:43;12.33;;;11.13;;
29938;SDS011;16799;50.844;5.304;2022-09-06T04:11:08;10.53;;;8.20;;
29938;SDS011;16799;50.844;5.304;2022-09-06T04:13:34;10.00;;;9.00;;
29938;SDS011;16799;50.844;5.304;2022-09-06T04:16:00;14.00;;;9.47;;
29938;SDS011;16799;50.844;5.304;2022-09-06T04:18:26;10.43;;;9.47;;
29938;SDS011;16799;50.844;5.304;2022-09-06T04:20:52;10.37;;;9.40;;
29938;SDS011;16799;50.844;5.304;2022-09-06T04:23:20;15.67;;;10.07;;
29938;SDS011;16799;50.844;5.304;2022-09-06T04:25:47;9.10;;;8.50;;
29938;SDS011;16799;50.844;5.304;2022-09-06T04:28:14;8.30;;;7.50;;
29938;SDS011;16799;50.844;5.304;2022-09-06T04:30:42;20.73;;;10.07;;
29938;SDS011;16799;50.844;5.304;2022-09-06T04:33:21;10.70;;;9.70;;
29938;SDS011;16799;50.844;5.304;2022-09-06T04:35:51;11.53;;;10.30;;
29938;SDS011;16799;50.844;5.304;2022-09-06T04:38:17;12.80;;;10.10;;
29938;SDS011;16799;50.844;5.304;2022-09-06T04:40:44;13.60;;;11.80;;
29938;SDS011;16799;50.844;5.304;2022-09-06T04:43:10;13.20;;;11.43;;
29938;SDS011;16799;50.844;5.304;2022-09-06T04:45:35;10.63;;;9.67;;
29938;SDS011;16799;50.844;5.304;2022-09-06T04:48:01;11.47;;;10.27;;
29938;SDS011;16799;50.844;5.304;2022-09-06T04:50:27;10.00;;;9.03;;
29938;SDS011;16799;50.844;5.304;2022-09-06T04:52:53;10.20;;;9.30;;
29938;SDS011;16799;50.844;5.304;2022-09-06T04:55:18;15.03;;;10.50;;
29938;SDS011;16799;50.844;5.304;2022-09-06T04:57:44;10.63;;;9.47;;
29938;SDS011;16799;50.844;5.304;2022-09-06T05:00:09;12.27;;;10.60;;
29938;SDS011;16799;50.844;5.304;2022-09-06T05:02:35;14.80;;;10.47;;
29938;SDS011;16799;50.844;5.304;2022-09-06T05:05:01;10.70;;;9.80;;
29938;SDS011;16799;50.844;5.304;2022-09-06T05:07:29;9.10;;;8.30;;
29938;SDS011;16799;50.844;5.304;2022-09-06T05:09:54;11.37;;;10.47;;
29938;SDS011;16799;50.844;5.304;2022-09-06T05:12:20;11.03;;;9.90;;
29938;SDS011;16799;50.844;5.304;2022-09-06T05:14:46;14.20;;;9.50;;
29938;SDS011;16799;50.844;5.304;2022-09-06T05:17:11;11.90;;;10.40;;
29938;SDS011;16799;50.844;5.304;2022-09-06T05:19:39;14.27;;;10.83;;
29938;SDS011;16799;50.844;5.304;2022-09-06T05:22:05;11.17;;;10.27;;
29938;SDS011;16799;50.844;5.304;2022-09-06T05:24:31;17.07;;;11.10;;
29938;SDS011;16799;50.844;5.304;2022-09-06T05:26:56;14.47;;;10.37;;
29938;SDS011;16799;50.844;5.304;2022-09-06T05:29:22;15.93;;;14.27;;
29938;SDS011;16799;50.844;5.304;2022-09-06T05:31:48;12.10;;;10.77;;
29938;SDS011;16799;50.844;5.304;2022-09-06T05:34:14;16.50;;;11.50;;
29938;SDS011;16799;50.844;5.304;2022-09-06T05:36:39;13.90;;;11.40;;
29938;SDS011;16799;50.844;5.304;2022-09-06T05:39:06;12.83;;;11.53;;
29938;SDS011;16799;50.844;5.304;2022-09-06T05:41:32;14.43;;;10.87;;
29938;SDS011;16799;50.844;5.304;2022-09-06T05:43:57;12.50;;;10.30;;
29938;SDS011;16799;50.844;5.304;2022-09-06T05:46:23;13.13;;;11.40;;
29938;SDS011;16799;50.844;5.304;2022-09-06T05:48:57;17.60;;;10.93;;
29938;SDS011;16799;50.844;5.304;2022-09-06T05:51:28;25.93;;;12.50;;
29938;SDS011;16799;50.844;5.304;2022-09-06T05:53:55;14.23;;;12.80;;
29938;SDS011;16799;50.844;5.304;2022-09-06T05:56:21;15.83;;;11.63;;
29938;SDS011;16799;50.844;5.304;2022-09-06T05:58:47;23.30;;;13.40;;
29938;SDS011;16799;50.844;5.304;2022-09-06T06:03:39;16.17;;;11.40;;
29938;SDS011;16799;50.844;5.304;2022-09-06T06:06:05;12.23;;;11.00;;
29938;SDS011;16799;50.844;5.304;2022-09-06T06:08:31;15.10;;;12.67;;
29938;SDS011;16799;50.844;5.304;2022-09-06T06:10:57;23.83;;;15.50;;
29938;SDS011;16799;50.844;5.304;2022-09-06T06:13:24;16.60;;;14.97;;
29938;SDS011;16799;50.844;5.304;2022-09-06T06:15:52;12.63;;;10.23;;
29938;SDS011;16799;50.844;5.304;2022-09-06T06:18:17;12.40;;;10.97;;
29938;SDS011;16799;50.844;5.304;2022-09-06T06:20:44;13.70;;;10.53;;
29938;SDS011;16799;50.844;5.304;2022-09-06T06:23:09;20.93;;;10.20;;
29938;SDS011;16799;50.844;5.304;2022-09-06T06:25:35;10.10;;;9.07;;
29938;SDS011;16799;50.844;5.304;2022-09-06T06:28:01;10.97;;;9.10;;
29938;SDS011;16799;50.844;5.304;2022-09-06T06:30:27;9.47;;;8.60;;
29938;SDS011;16799;50.844;5.304;2022-09-06T06:32:52;10.40;;;7.47;;
29938;SDS011;16799;50.844;5.304;2022-09-06T06:35:18;11.70;;;9.23;;
29938;SDS011;16799;50.844;5.304;2022-09-06T06:37:43;14.50;;;8.93;;
29938;SDS011;16799;50.844;5.304;2022-09-06T06:40:09;12.03;;;6.70;;
29938;SDS011;16799;50.844;5.304;2022-09-06T06:42:35;13.60;;;7.33;;
29938;SDS011;16799;50.844;5.304;2022-09-06T06:45:01;9.60;;;6.80;;
29938;SDS011;16799;50.844;5.304;2022-09-06T06:47:27;13.33;;;7.70;;
29938;SDS011;16799;50.844;5.304;2022-09-06T06:49:52;10.20;;;7.03;;
29938;SDS011;16799;50.844;5.304;2022-09-06T06:52:18;8.90;;;6.30;;
29938;SDS011;16799;50.844;5.304;2022-09-06T06:54:45;6.40;;;5.90;;
29938;SDS011;16799;50.844;5.304;2022-09-06T06:57:11;16.23;;;5.43;;
29938;SDS011;16799;50.844;5.304;2022-09-06T06:59:36;14.80;;;5.77;;
29938;SDS011;16799;50.844;5.304;2022-09-06T07:02:03;14.57;;;4.30;;
29938;SDS011;16799;50.844;5.304;2022-09-06T07:04:30;8.10;;;3.90;;
29938;SDS011;16799;50.844;5.304;2022-09-06T07:06:55;6.70;;;4.17;;
29938;SDS011;16799;50.844;5.304;2022-09-06T07:09:21;5.50;;;3.03;;
29938;SDS011;16799;50.844;5.304;2022-09-06T07:11:48;10.93;;;3.37;;
29938;SDS011;16799;50.844;5.304;2022-09-06T07:14:14;6.90;;;3.20;;
29938;SDS011;16799;50.844;5.304;2022-09-06T07:16:41;5.30;;;3.00;;
29938;SDS011;16799;50.844;5.304;2022-09-06T07:19:07;8.70;;;3.40;;
29938;SDS011;16799;50.844;5.304;2022-09-06T07:21:32;9.23;;;2.97;;
29938;SDS011;16799;50.844;5.304;2022-09-06T07:23:58;4.33;;;2.30;;
29938;SDS011;16799;50.844;5.304;2022-09-06T07:26:25;3.60;;;2.63;;
29938;SDS011;16799;50.844;5.304;2022-09-06T07:28:52;4.07;;;2.43;;
29938;SDS011;16799;50.844;5.304;2022-09-06T07:31:19;5.67;;;2.57;;
29938;SDS011;16799;50.844;5.304;2022-09-06T07:33:45;6.10;;;2.50;;
29938;SDS011;16799;50.844;5.304;2022-09-06T07:36:11;5.23;;;2.27;;
29938;SDS011;16799;50.844;5.304;2022-09-06T07:38:36;4.17;;;2.10;;
29938;SDS011;16799;50.844;5.304;2022-09-06T07:41:03;2.63;;;2.20;;
29938;SDS011;16799;50.844;5.304;2022-09-06T07:43:30;4.83;;;2.60;;
29938;SDS011;16799;50.844;5.304;2022-09-06T07:48:26;5.80;;;2.17;;
29938;SDS011;16799;50.844;5.304;2022-09-06T07:50:54;5.60;;;2.50;;
29938;SDS011;16799;50.844;5.304;2022-09-06T07:53:19;3.30;;;2.23;;
29938;SDS011;16799;50.844;5.304;2022-09-06T07:55:45;2.50;;;2.07;;
29938;SDS011;16799;50.844;5.304;2022-09-06T07:58:11;5.50;;;2.33;;
29938;SDS011;16799;50.844;5.304;2022-09-06T08:00:36;2.13;;;2.00;;
29938;SDS011;16799;50.844;5.304;2022-09-06T08:03:04;9.33;;;2.37;;
29938;SDS011;16799;50.844;5.304;2022-09-06T08:05:30;14.13;;;2.23;;
29938;SDS011;16799;50.844;5.304;2022-09-06T08:07:56;1.20;;;1.10;;
29938;SDS011;16799;50.844;5.304;2022-09-06T08:10:21;1.50;;;1.40;;
29938;SDS011;16799;50.844;5.304;2022-09-06T08:12:47;6.40;;;2.37;;
29938;SDS011;16799;50.844;5.304;2022-09-06T08:15:17;2.13;;;1.60;;
29938;SDS011;16799;50.844;5.304;2022-09-06T08:17:42;3.40;;;2.17;;
29938;SDS011;16799;50.844;5.304;2022-09-06T08:20:11;2.83;;;1.40;;
29938;SDS011;16799;50.844;5.304;2022-09-06T08:22:37;3.50;;;1.90;;
29938;SDS011;16799;50.844;5.304;2022-09-06T08:25:02;4.20;;;1.83;;
29938;SDS011;16799;50.844;5.304;2022-09-06T08:27:28;4.10;;;1.97;;
29938;SDS011;16799;50.844;5.304;2022-09-06T08:29:54;1.90;;;1.80;;
29938;SDS011;16799;50.844;5.304;2022-09-06T08:32:19;2.57;;;1.90;;
29938;SDS011;16799;50.844;5.304;2022-09-06T08:34:45;1.93;;;1.70;;
29938;SDS011;16799;50.844;5.304;2022-09-06T08:37:11;5.10;;;1.53;;
29938;SDS011;16799;50.844;5.304;2022-09-06T08:39:36;2.57;;;1.33;;
29938;SDS011;16799;50.844;5.304;2022-09-06T08:42:05;6.97;;;2.60;;
29938;SDS011;16799;50.844;5.304;2022-09-06T08:44:33;2.53;;;2.33;;
29938;SDS011;16799;50.844;5.304;2022-09-06T08:47:08;2.13;;;1.60;;
29938;SDS011;16799;50.844;5.304;2022-09-06T08:49:39;1.87;;;1.77;;
29938;SDS011;16799;50.844;5.304;2022-09-06T08:55:08;3.07;;;1.70;;
29938;SDS011;16799;50.844;5.304;2022-09-06T09:00:17;4.50;;;2.20;;
29938;SDS011;16799;50.844;5.304;2022-09-06T09:02:45;2.10;;;2.00;;
29938;SDS011;16799;50.844;5.304;2022-09-06T09:05:21;3.13;;;2.03;;
29938;SDS011;16799;50.844;5.304;2022-09-06T09:10:33;9.33;;;3.30;;
29938;SDS011;16799;50.844;5.304;2022-09-06T09:13:56;4.30;;;2.60;;
29938;SDS011;16799;50.844;5.304;2022-09-06T09:16:00;15.80;;;3.60;;
29938;SDS011;16799;50.844;5.304;2022-09-06T09:18:27;2.30;;;2.20;;
29938;SDS011;16799;50.844;5.304;2022-09-06T09:20:56;8.90;;;2.13;;
29938;SDS011;16799;50.844;5.304;2022-09-06T09:23:23;2.80;;;2.17;;
29938;SDS011;16799;50.844;5.304;2022-09-06T09:25:49;3.07;;;2.07;;
29938;SDS011;16799;50.844;5.304;2022-09-06T09:28:17;1.73;;;1.60;;
29938;SDS011;16799;50.844;5.304;2022-09-06T09:30:55;3.47;;;1.83;;
29938;SDS011;16799;50.844;5.304;2022-09-06T09:36:08;2.07;;;1.80;;
29938;SDS011;16799;50.844;5.304;2022-09-06T09:38:41;5.43;;;2.30;;
29938;SDS011;16799;50.844;5.304;2022-09-06T09:41:10;4.90;;;2.53;;
29938;SDS011;16799;50.844;5.304;2022-09-06T09:43:55;1.90;;;1.70;;
29938;SDS011;16799;50.844;5.304;2022-09-06T09:54:07;3.53;;;2.13;;
29938;SDS011;16799;50.844;5.304;2022-09-06T09:56:46;3.80;;;2.03;;
29938;SDS011;16799;50.844;5.304;2022-09-06T09:59:29;3.00;;;2.07;;
29938;SDS011;16799;50.844;5.304;2022-09-06T10:02:01;2.40;;;1.83;;
29938;SDS011;16799;50.844;5.304;2022-09-06T10:04:48;2.37;;;2.03;;
29938;SDS011;16799;50.844;5.304;2022-09-06T10:07:17;4.97;;;1.90;;
29938;SDS011;16799;50.844;5.304;2022-09-06T10:09:57;2.83;;;2.30;;
29938;SDS011;16799;50.844;5.304;2022-09-06T10:14:55;1.87;;;1.60;;
29938;SDS011;16799;50.844;5.304;2022-09-06T10:17:46;4.33;;;1.97;;
29938;SDS011;16799;50.844;5.304;2022-09-06T10:20:14;2.50;;;2.27;;
29938;SDS011;16799;50.844;5.304;2022-09-06T10:25:29;3.10;;;1.90;;
29938;SDS011;16799;50.844;5.304;2022-09-06T10:28:25;1.87;;;1.63;;
29938;SDS011;16799;50.844;5.304;2022-09-06T10:31:05;2.37;;;2.17;;
29938;SDS011;16799;50.844;5.304;2022-09-06T10:36:27;2.20;;;2.10;;
29938;SDS011;16799;50.844;5.304;2022-09-06T10:39:02;2.23;;;2.13;;
29938;SDS011;16799;50.844;5.304;2022-09-06T10:44:26;3.40;;;1.87;;
29938;SDS011;16799;50.844;5.304;2022-09-06T10:47:15;5.43;;;2.83;;
29938;SDS011;16799;50.844;5.304;2022-09-06T10:49:43;3.00;;;1.80;;
29938;SDS011;16799;50.844;5.304;2022-09-06T10:52:24;1.70;;;1.60;;
29938;SDS011;16799;50.844;5.304;2022-09-06T10:54:56;2.03;;;1.10;;
29938;SDS011;16799;50.844;5.304;2022-09-06T10:57:37;1.80;;;1.70;;
29938;SDS011;16799;50.844;5.304;2022-09-06T11:00:20;3.70;;;1.67;;
29938;SDS011;16799;50.844;5.304;2022-09-06T11:02:57;2.00;;;1.80;;
29938;SDS011;16799;50.844;5.304;2022-09-06T11:05:32;2.60;;;1.87;;
29938;SDS011;16799;50.844;5.304;2022-09-06T11:08:02;1.90;;;1.47;;
29938;SDS011;16799;50.844;5.304;2022-09-06T11:10:37;1.47;;;1.07;;
29938;SDS011;16799;50.844;5.304;2022-09-06T11:13:14;3.90;;;1.50;;
29938;SDS011;16799;50.844;5.304;2022-09-06T11:15:44;2.60;;;1.70;;
29938;SDS011;16799;50.844;5.304;2022-09-06T11:26:42;2.00;;;1.80;;
29938;SDS011;16799;50.844;5.304;2022-09-06T11:29:29;3.50;;;2.20;;
29938;SDS011;16799;50.844;5.304;2022-09-06T11:31:55;3.20;;;1.70;;
29938;SDS011;16799;50.844;5.304;2022-09-06T11:34:30;1.33;;;1.07;;
29938;SDS011;16799;50.844;5.304;2022-09-06T11:36:58;2.27;;;1.50;;
29938;SDS011;16799;50.844;5.304;2022-09-06T11:39:32;4.33;;;1.53;;
29938;SDS011;16799;50.844;5.304;2022-09-06T11:41:59;4.60;;;1.93;;
29938;SDS011;16799;50.844;5.304;2022-09-06T11:47:34;2.83;;;1.60;;
29938;SDS011;16799;50.844;5.304;2022-09-06T11:50:22;4.40;;;1.20;;
29938;SDS011;16799;50.844;5.304;2022-09-06T11:55:42;3.07;;;1.57;;
29938;SDS011;16799;50.844;5.304;2022-09-06T11:59:02;1.97;;;1.17;;
29938;SDS011;16799;50.844;5.304;2022-09-06T12:08:38;3.53;;;1.43;;
29938;SDS011;16799;50.844;5.304;2022-09-06T12:13:55;1.87;;;1.17;;
29938;SDS011;16799;50.844;5.304;2022-09-06T12:25:05;1.87;;;1.57;;
29938;SDS011;16799;50.844;5.304;2022-09-06T12:28:05;1.50;;;1.40;;
29938;SDS011;16799;50.844;5.304;2022-09-06T12:30:41;2.20;;;1.40;;
29938;SDS011;16799;50.844;5.304;2022-09-06T12:36:17;2.13;;;1.80;;
29938;SDS011;16799;50.844;5.304;2022-09-06T12:38:53;3.20;;;1.50;;
29938;SDS011;16799;50.844;5.304;2022-09-06T12:41:35;2.40;;;1.43;;
29938;SDS011;16799;50.844;5.304;2022-09-06T12:44:04;2.07;;;1.30;;
29938;SDS011;16799;50.844;5.304;2022-09-06T12:46:31;1.93;;;1.00;;
29938;SDS011;16799;50.844;5.304;2022-09-06T12:49:02;4.70;;;1.50;;
29938;SDS011;16799;50.844;5.304;2022-09-06T12:51:28;1.77;;;1.20;;
29938;SDS011;16799;50.844;5.304;2022-09-06T12:53:58;0.93;;;0.93;;
29938;SDS011;16799;50.844;5.304;2022-09-06T12:56:27;2.77;;;1.00;;
29938;SDS011;16799;50.844;5.304;2022-09-06T12:59:10;1.23;;;0.90;;
29938;SDS011;16799;50.844;5.304;2022-09-06T13:01:38;1.10;;;0.80;;
29938;SDS011;16799;50.844;5.304;2022-09-06T13:04:16;1.03;;;0.93;;
29938;SDS011;16799;50.844;5.304;2022-09-06T13:06:51;3.40;;;1.40;;
29938;SDS011;16799;50.844;5.304;2022-09-06T13:09:18;1.80;;;0.60;;
29938;SDS011;16799;50.844;5.304;2022-09-06T13:11:46;0.80;;;0.70;;
29938;SDS011;16799;50.844;5.304;2022-09-06T13:14:18;8.33;;;1.07;;
29938;SDS011;16799;50.844;5.304;2022-09-06T13:16:49;1.00;;;0.90;;
29938;SDS011;16799;50.844;5.304;2022-09-06T13:19:19;1.17;;;0.70;;
29938;SDS011;16799;50.844;5.304;2022-09-06T13:21:59;1.13;;;0.90;;
29938;SDS011;16799;50.844;5.304;2022-09-06T13:26:59;0.73;;;0.63;;
29938;SDS011;16799;50.844;5.304;2022-09-06T13:29:29;3.17;;;1.20;;
29938;SDS011;16799;50.844;5.304;2022-09-06T13:31:56;5.10;;;1.70;;
29938;SDS011;16799;50.844;5.304;2022-09-06T13:34:24;1.20;;;1.10;;
29938;SDS011;16799;50.844;5.304;2022-09-06T13:37:05;2.27;;;0.83;;
29938;SDS011;16799;50.844;5.304;2022-09-06T13:39:35;4.93;;;1.23;;
29938;SDS011;16799;50.844;5.304;2022-09-06T13:42:06;2.73;;;0.90;;
29938;SDS011;16799;50.844;5.304;2022-09-06T13:44:34;2.40;;;1.10;;
29938;SDS011;16799;50.844;5.304;2022-09-06T13:47:02;1.53;;;0.90;;
29938;SDS011;16799;50.844;5.304;2022-09-06T13:49:28;1.03;;;0.67;;
29938;SDS011;16799;50.844;5.304;2022-09-06T13:51:57;0.80;;;0.80;;
29938;SDS011;16799;50.844;5.304;2022-09-06T13:54:24;1.07;;;0.70;;
29938;SDS011;16799;50.844;5.304;2022-09-06T13:56:51;2.50;;;1.27;;
29938;SDS011;16799;50.844;5.304;2022-09-06T13:59:17;1.27;;;0.97;;
29938;SDS011;16799;50.844;5.304;2022-09-06T14:01:44;5.23;;;1.20;;
29938;SDS011;16799;50.844;5.304;2022-09-06T14:04:13;0.90;;;0.77;;
29938;SDS011;16799;50.844;5.304;2022-09-06T14:06:43;1.77;;;1.20;;
29938;SDS011;16799;50.844;5.304;2022-09-06T14:09:10;4.83;;;1.17;;
29938;SDS011;16799;50.844;5.304;2022-09-06T14:11:36;1.87;;;0.97;;
29938;SDS011;16799;50.844;5.304;2022-09-06T14:14:02;1.00;;;0.90;;
29938;SDS011;16799;50.844;5.304;2022-09-06T14:16:28;1.30;;;0.90;;
29938;SDS011;16799;50.844;5.304;2022-09-06T14:18:54;1.17;;;1.07;;
29938;SDS011;16799;50.844;5.304;2022-09-06T14:21:20;1.13;;;0.87;;
29938;SDS011;16799;50.844;5.304;2022-09-06T14:23:49;1.13;;;0.87;;
29938;SDS011;16799;50.844;5.304;2022-09-06T14:26:16;1.77;;;1.10;;
29938;SDS011;16799;50.844;5.304;2022-09-06T14:28:42;1.63;;;1.00;;
29938;SDS011;16799;50.844;5.304;2022-09-06T14:31:09;1.13;;;0.87;;
29938;SDS011;16799;50.844;5.304;2022-09-06T14:33:36;1.40;;;0.90;;
29938;SDS011;16799;50.844;5.304;2022-09-06T14:36:05;4.13;;;0.90;;
29938;SDS011;16799;50.844;5.304;2022-09-06T14:38:34;2.10;;;1.03;;
29938;SDS011;16799;50.844;5.304;2022-09-06T14:41:02;2.43;;;0.93;;
29938;SDS011;16799;50.844;5.304;2022-09-06T14:43:28;0.80;;;0.70;;
29938;SDS011;16799;50.844;5.304;2022-09-06T14:45:54;1.33;;;1.00;;
29938;SDS011;16799;50.844;5.304;2022-09-06T14:48:26;4.30;;;0.80;;
29938;SDS011;16799;50.844;5.304;2022-09-06T14:50:54;0.63;;;0.60;;
29938;SDS011;16799;50.844;5.304;2022-09-06T14:53:19;0.60;;;0.60;;
29938;SDS011;16799;50.844;5.304;2022-09-06T14:55:45;2.33;;;0.80;;
29938;SDS011;16799;50.844;5.304;2022-09-06T14:58:10;1.00;;;0.77;;
29938;SDS011;16799;50.844;5.304;2022-09-06T15:00:38;1.47;;;0.80;;
29938;SDS011;16799;50.844;5.304;2022-09-06T15:03:04;0.80;;;0.60;;
29938;SDS011;16799;50.844;5.304;2022-09-06T15:05:30;2.60;;;0.50;;
29938;SDS011;16799;50.844;5.304;2022-09-06T15:07:55;0.90;;;0.70;;
29938;SDS011;16799;50.844;5.304;2022-09-06T15:10:21;1.10;;;1.00;;
29938;SDS011;16799;50.844;5.304;2022-09-06T15:12:47;0.90;;;0.70;;
29938;SDS011;16799;50.844;5.304;2022-09-06T15:15:12;1.97;;;0.77;;
29938;SDS011;16799;50.844;5.304;2022-09-06T15:17:39;0.67;;;0.60;;
29938;SDS011;16799;50.844;5.304;2022-09-06T15:20:05;1.30;;;1.20;;
29938;SDS011;16799;50.844;5.304;2022-09-06T15:22:32;2.60;;;1.13;;
29938;SDS011;16799;50.844;5.304;2022-09-06T15:24:57;0.70;;;0.70;;
29938;SDS011;16799;50.844;5.304;2022-09-06T15:27:23;2.50;;;1.20;;
29938;SDS011;16799;50.844;5.304;2022-09-06T15:29:49;0.70;;;0.70;;
29938;SDS011;16799;50.844;5.304;2022-09-06T15:32:14;0.90;;;0.77;;
29938;SDS011;16799;50.844;5.304;2022-09-06T15:34:40;1.20;;;1.07;;
29938;SDS011;16799;50.844;5.304;2022-09-06T15:37:06;1.30;;;0.90;;
29938;SDS011;16799;50.844;5.304;2022-09-06T15:39:31;2.13;;;0.80;;
29938;SDS011;16799;50.844;5.304;2022-09-06T15:41:57;2.93;;;0.80;;
29938;SDS011;16799;50.844;5.304;2022-09-06T15:44:22;2.83;;;1.30;;
29938;SDS011;16799;50.844;5.304;2022-09-06T15:46:55;2.90;;;1.17;;
29938;SDS011;16799;50.844;5.304;2022-09-06T15:49:26;5.10;;;1.03;;
29938;SDS011;16799;50.844;5.304;2022-09-06T15:51:53;1.27;;;0.87;;
29938;SDS011;16799;50.844;5.304;2022-09-06T15:54:20;1.40;;;1.30;;
29938;SDS011;16799;50.844;5.304;2022-09-06T15:57:09;5.13;;;0.90;;
29938;SDS011;16799;50.844;5.304;2022-09-06T15:59:35;2.47;;;1.10;;
29938;SDS011;16799;50.844;5.304;2022-09-06T16:02:01;1.53;;;1.10;;
29938;SDS011;16799;50.844;5.304;2022-09-06T16:04:27;9.83;;;1.17;;
29938;SDS011;16799;50.844;5.304;2022-09-06T16:06:53;2.63;;;1.27;;
29938;SDS011;16799;50.844;5.304;2022-09-06T16:09:18;11.30;;;1.30;;
29938;SDS011;16799;50.844;5.304;2022-09-06T16:11:44;1.80;;;1.10;;
29938;SDS011;16799;50.844;5.304;2022-09-06T16:14:11;2.03;;;1.13;;
29938;SDS011;16799;50.844;5.304;2022-09-06T16:16:38;1.57;;;1.30;;
29938;SDS011;16799;50.844;5.304;2022-09-06T16:19:07;2.30;;;1.07;;
29938;SDS011;16799;50.844;5.304;2022-09-06T16:21:34;1.83;;;1.07;;
29938;SDS011;16799;50.844;5.304;2022-09-06T16:24:03;1.30;;;1.10;;
29938;SDS011;16799;50.844;5.304;2022-09-06T16:26:32;1.13;;;0.87;;
29938;SDS011;16799;50.844;5.304;2022-09-06T16:28:59;1.50;;;1.00;;
29938;SDS011;16799;50.844;5.304;2022-09-06T16:31:26;0.87;;;0.80;;
29938;SDS011;16799;50.844;5.304;2022-09-06T16:33:53;3.90;;;0.80;;
29938;SDS011;16799;50.844;5.304;2022-09-06T16:36:20;1.27;;;0.93;;
29938;SDS011;16799;50.844;5.304;2022-09-06T16:38:46;1.20;;;1.00;;